sensor_id;sensor_type;location;lat;lon;timestamp;pressure;altitude;pressure_sealevel;temperature;humidity
11198;BME280;5655;48.744;9.162;2023-06-01T00:00:14;96334.31;;;21.28;64.63
11198;BME280;5655;48.744;9.162;2023-06-01T00:02:40;96339.09;;;21.24;64.63
11198;BME280;5655;48.744;9.162;2023-06-01T00:05:06;96336.31;;;21.12;66.27
11198;BME280;5655;48.744;9.162;2023-06-01T00:07:31;96332.75;;;21.15;65.86
11198;BME280;5655;48.744;9.162;2023-06-01T00:09:58;96332.25;;;20.91;70.13
11198;BME280;5655;48.744;9.162;2023-06-01T00:12:23;96325.56;;;20.79;72.92
11198;BME280;5655;48.744;9.162;2023-06-01T00:14:48;96333.28;;;20.81;73.70
11198;BME280;5655;48.744;9.162;2023-06-01T00:17:14;96330.09;;;20.70;74.77
11198;BME280;5655;48.744;9.162;2023-06-01T00:19:39;96333.94;;;20.56;76.93
11198;BME280;5655;48.744;9.162;2023-06-01T00:22:05;96332.69;;;20.45;80.04
11198;BME280;5655;48.744;9.162;2023-06-01T00:24:32;96328.28;;;20.34;82.54
11198;BME280;5655;48.744;9.162;2023-06-01T00:26:57;96335.41;;;20.28;82.33
11198;BME280;5655;48.744;9.162;2023-06-01T00:29:22;96336.00;;;20.04;86.46
11198;BME280;5655;48.744;9.162;2023-06-01T00:31:48;96335.91;;;19.75;88.26
11198;BME280;5655;48.744;9.162;2023-06-01T00:34:13;96337.59;;;19.69;87.46
11198;BME280;5655;48.744;9.162;2023-06-01T00:36:39;96336.06;;;19.68;87.63
11198;BME280;5655;48.744;9.162;2023-06-01T00:39:04;96335.38;;;19.64;87.82
11198;BME280;5655;48.744;9.162;2023-06-01T00:41:30;96332.44;;;19.74;85.08
11198;BME280;5655;48.744;9.162;2023-06-01T00:43:56;96335.91;;;19.75;84.03
11198;BME280;5655;48.744;9.162;2023-06-01T00:46:21;96327.22;;;19.64;85.04
11198;BME280;5655;48.744;9.162;2023-06-01T00:48:47;96330.78;;;19.61;85.51
11198;BME280;5655;48.744;9.162;2023-06-01T00:51:12;96330.88;;;19.57;86.01
11198;BME280;5655;48.744;9.162;2023-06-01T00:53:40;96324.44;;;19.31;91.61
11198;BME280;5655;48.744;9.162;2023-06-01T00:56:06;96326.25;;;19.18;94.71
11198;BME280;5655;48.744;9.162;2023-06-01T00:58:31;96327.91;;;19.12;97.72
11198;BME280;5655;48.744;9.162;2023-06-01T01:00:57;96331.28;;;19.00;100.00
11198;BME280;5655;48.744;9.162;2023-06-01T01:03:22;96326.53;;;19.04;100.00
11198;BME280;5655;48.744;9.162;2023-06-01T01:05:52;96320.25;;;19.07;100.00
11198;BME280;5655;48.744;9.162;2023-06-01T01:11:26;96321.81;;;19.08;100.00
11198;BME280;5655;48.744;9.162;2023-06-01T01:16:57;96317.72;;;19.00;100.00
11198;BME280;5655;48.744;9.162;2023-06-01T01:27:45;96319.66;;;18.80;100.00
11198;BME280;5655;48.744;9.162;2023-06-01T01:30:18;96323.47;;;18.63;100.00
11198;BME280;5655;48.744;9.162;2023-06-01T01:32:48;96319.22;;;18.62;100.00
11198;BME280;5655;48.744;9.162;2023-06-01T01:35:14;96318.88;;;18.59;100.00
11198;BME280;5655;48.744;9.162;2023-06-01T01:37:53;96318.06;;;18.63;100.00
11198;BME280;5655;48.744;9.162;2023-06-01T01:40:19;96326.00;;;18.50;100.00
11198;BME280;5655;48.744;9.162;2023-06-01T01:42:45;96315.94;;;18.50;100.00
11198;BME280;5655;48.744;9.162;2023-06-01T01:45:11;96316.03;;;18.43;100.00
11198;BME280;5655;48.744;9.162;2023-06-01T01:47:59;96308.16;;;18.52;100.00
11198;BME280;5655;48.744;9.162;2023-06-01T01:50:33;96306.28;;;18.26;100.00
11198;BME280;5655;48.744;9.162;2023-06-01T01:53:02;96306.09;;;18.37;100.00
11198;BME280;5655;48.744;9.162;2023-06-01T01:55:28;96301.78;;;18.63;100.00
11198;BME280;5655;48.744;9.162;2023-06-01T01:57:56;96306.59;;;18.51;100.00
11198;BME280;5655;48.744;9.162;2023-06-01T02:00:24;96304.72;;;18.72;100.00
11198;BME280;5655;48.744;9.162;2023-06-01T02:02:49;96306.19;;;18.76;100.00
11198;BME280;5655;48.744;9.162;2023-06-01T02:05:14;96299.47;;;18.61;100.00
11198;BME280;5655;48.744;9.162;2023-06-01T02:07:40;96299.63;;;18.54;100.00
11198;BME280;5655;48.744;9.162;2023-06-01T02:10:06;96302.59;;;18.59;100.00
11198;BME280;5655;48.744;9.162;2023-06-01T02:12:31;96299.50;;;18.38;100.00
11198;BME280;5655;48.744;9.162;2023-06-01T02:14:56;96295.56;;;18.19;100.00
11198;BME280;5655;48.744;9.162;2023-06-01T02:17:22;96282.50;;;18.14;100.00
11198;BME280;5655;48.744;9.162;2023-06-01T02:19:50;96287.44;;;18.19;100.00
11198;BME280;5655;48.744;9.162;2023-06-01T02:22:15;96280.03;;;18.23;100.00
11198;BME280;5655;48.744;9.162;2023-06-01T02:24:40;96284.88;;;18.12;100.00
11198;BME280;5655;48.744;9.162;2023-06-01T02:27:06;96282.91;;;18.12;100.00
11198;BME280;5655;48.744;9.162;2023-06-01T02:29:31;96296.28;;;18.00;100.00
11198;BME280;5655;48.744;9.162;2023-06-01T02:31:57;96299.28;;;18.05;100.00
11198;BME280;5655;48.744;9.162;2023-06-01T02:34:22;96296.75;;;17.95;100.00
11198;BME280;5655;48.744;9.162;2023-06-01T02:36:48;96296.00;;;17.94;100.00
11198;BME280;5655;48.744;9.162;2023-06-01T02:39:13;96297.47;;;17.99;100.00
11198;BME280;5655;48.744;9.162;2023-06-01T02:41:39;96295.16;;;17.97;100.00
11198;BME280;5655;48.744;9.162;2023-06-01T02:44:04;96297.69;;;17.85;100.00
11198;BME280;5655;48.744;9.162;2023-06-01T02:46:29;96290.53;;;17.98;100.00
11198;BME280;5655;48.744;9.162;2023-06-01T02:48:55;96287.97;;;17.87;100.00
11198;BME280;5655;48.744;9.162;2023-06-01T02:51:20;96291.38;;;17.91;100.00
11198;BME280;5655;48.744;9.162;2023-06-01T02:53:45;96286.50;;;18.06;100.00
11198;BME280;5655;48.744;9.162;2023-06-01T02:56:14;96288.09;;;18.03;100.00
11198;BME280;5655;48.744;9.162;2023-06-01T02:58:40;96292.28;;;17.85;100.00
11198;BME280;5655;48.744;9.162;2023-06-01T03:01:06;96290.16;;;17.73;100.00
11198;BME280;5655;48.744;9.162;2023-06-01T03:03:32;96287.19;;;17.63;100.00
11198;BME280;5655;48.744;9.162;2023-06-01T03:05:58;96282.66;;;17.53;100.00
11198;BME280;5655;48.744;9.162;2023-06-01T03:08:23;96296.56;;;17.55;100.00
11198;BME280;5655;48.744;9.162;2023-06-01T03:10:52;96290.31;;;17.62;100.00
11198;BME280;5655;48.744;9.162;2023-06-01T03:13:17;96289.53;;;17.61;100.00
11198;BME280;5655;48.744;9.162;2023-06-01T03:15:42;96294.38;;;17.74;100.00
11198;BME280;5655;48.744;9.162;2023-06-01T03:18:08;96287.75;;;17.51;100.00
11198;BME280;5655;48.744;9.162;2023-06-01T03:20:36;96294.22;;;17.57;100.00
11198;BME280;5655;48.744;9.162;2023-06-01T03:23:02;96293.41;;;17.60;100.00
11198;BME280;5655;48.744;9.162;2023-06-01T03:25:27;96289.44;;;17.68;100.00
11198;BME280;5655;48.744;9.162;2023-06-01T03:27:53;96288.38;;;17.62;100.00
11198;BME280;5655;48.744;9.162;2023-06-01T03:30:18;96291.06;;;17.62;100.00
11198;BME280;5655;48.744;9.162;2023-06-01T03:32:44;96303.44;;;17.63;100.00
11198;BME280;5655;48.744;9.162;2023-06-01T03:35:11;96297.84;;;17.74;100.00
11198;BME280;5655;48.744;9.162;2023-06-01T03:37:39;96297.78;;;17.78;100.00
11198;BME280;5655;48.744;9.162;2023-06-01T03:40:06;96299.78;;;17.74;100.00
11198;BME280;5655;48.744;9.162;2023-06-01T03:42:43;96294.63;;;17.83;100.00
11198;BME280;5655;48.744;9.162;2023-06-01T03:45:09;96293.97;;;17.75;100.00
11198;BME280;5655;48.744;9.162;2023-06-01T03:47:35;96303.50;;;17.60;100.00
11198;BME280;5655;48.744;9.162;2023-06-01T03:50:01;96304.56;;;17.66;100.00
11198;BME280;5655;48.744;9.162;2023-06-01T03:52:30;96304.16;;;17.67;100.00
11198;BME280;5655;48.744;9.162;2023-06-01T03:54:57;96306.53;;;17.62;100.00
11198;BME280;5655;48.744;9.162;2023-06-01T03:57:23;96304.16;;;17.67;100.00
11198;BME280;5655;48.744;9.162;2023-06-01T03:59:48;96309.78;;;17.50;100.00
11198;BME280;5655;48.744;9.162;2023-06-01T04:02:13;96308.25;;;17.49;100.00
11198;BME280;5655;48.744;9.162;2023-06-01T04:04:39;96306.72;;;17.48;100.00
11198;BME280;5655;48.744;9.162;2023-06-01T04:07:10;96308.31;;;17.45;100.00
11198;BME280;5655;48.744;9.162;2023-06-01T04:09:39;96309.84;;;17.46;100.00
11198;BME280;5655;48.744;9.162;2023-06-01T04:12:05;96309.03;;;17.49;100.00
11198;BME280;5655;48.744;9.162;2023-06-01T04:14:30;96312.38;;;17.30;100.00
11198;BME280;5655;48.744;9.162;2023-06-01T04:16:55;96309.94;;;17.39;100.00
11198;BME280;5655;48.744;9.162;2023-06-01T04:19:21;96315.06;;;17.30;100.00
11198;BME280;5655;48.744;9.162;2023-06-01T04:21:46;96315.91;;;17.27;100.00
11198;BME280;5655;48.744;9.162;2023-06-01T04:24:11;96316.00;;;17.20;100.00
11198;BME280;5655;48.744;9.162;2023-06-01T04:26:37;96322.41;;;17.33;100.00
11198;BME280;5655;48.744;9.162;2023-06-01T04:29:02;96319.53;;;17.44;100.00
11198;BME280;5655;48.744;9.162;2023-06-01T04:31:28;96312.63;;;17.39;100.00
11198;BME280;5655;48.744;9.162;2023-06-01T04:33:53;96318.31;;;17.48;100.00
11198;BME280;5655;48.744;9.162;2023-06-01T04:36:22;96319.31;;;17.61;100.00
11198;BME280;5655;48.744;9.162;2023-06-01T04:38:48;96317.50;;;17.51;100.00
11198;BME280;5655;48.744;9.162;2023-06-01T04:41:18;96322.09;;;17.54;100.00
11198;BME280;5655;48.744;9.162;2023-06-01T04:43:45;96323.63;;;17.59;100.00
11198;BME280;5655;48.744;9.162;2023-06-01T04:46:20;96321.69;;;17.59;100.00
11198;BME280;5655;48.744;9.162;2023-06-01T04:48:46;96315.28;;;17.73;100.00
11198;BME280;5655;48.744;9.162;2023-06-01T04:51:13;96325.16;;;17.56;100.00
11198;BME280;5655;48.744;9.162;2023-06-01T04:53:44;96321.38;;;17.50;100.00
11198;BME280;5655;48.744;9.162;2023-06-01T04:56:10;96319.41;;;17.54;100.00
11198;BME280;5655;48.744;9.162;2023-06-01T04:58:35;96327.34;;;17.68;100.00
11198;BME280;5655;48.744;9.162;2023-06-01T05:01:00;96324.84;;;17.81;100.00
11198;BME280;5655;48.744;9.162;2023-06-01T05:03:26;96329.31;;;17.91;100.00
11198;BME280;5655;48.744;9.162;2023-06-01T05:05:51;96331.59;;;17.93;100.00
11198;BME280;5655;48.744;9.162;2023-06-01T05:08:16;96332.31;;;17.97;100.00
11198;BME280;5655;48.744;9.162;2023-06-01T05:10:42;96328.50;;;18.18;100.00
11198;BME280;5655;48.744;9.162;2023-06-01T05:13:07;96331.97;;;18.18;100.00
11198;BME280;5655;48.744;9.162;2023-06-01T05:15:33;96338.47;;;18.24;100.00
11198;BME280;5655;48.744;9.162;2023-06-01T05:17:58;96330.06;;;18.38;100.00
11198;BME280;5655;48.744;9.162;2023-06-01T05:20:23;96332.19;;;18.27;100.00
11198;BME280;5655;48.744;9.162;2023-06-01T05:22:48;96326.19;;;18.39;100.00
11198;BME280;5655;48.744;9.162;2023-06-01T05:25:14;96327.66;;;18.44;100.00
11198;BME280;5655;48.744;9.162;2023-06-01T05:27:39;96325.34;;;18.66;100.00
11198;BME280;5655;48.744;9.162;2023-06-01T05:30:05;96323.06;;;18.84;100.00
11198;BME280;5655;48.744;9.162;2023-06-01T05:32:30;96321.38;;;18.90;100.00
11198;BME280;5655;48.744;9.162;2023-06-01T05:34:56;96326.63;;;19.00;100.00
11198;BME280;5655;48.744;9.162;2023-06-01T05:37:21;96324.81;;;18.94;100.00
11198;BME280;5655;48.744;9.162;2023-06-01T05:39:46;96336.00;;;18.96;100.00
11198;BME280;5655;48.744;9.162;2023-06-01T05:42:12;96328.13;;;18.82;100.00
11198;BME280;5655;48.744;9.162;2023-06-01T05:44:37;96324.25;;;19.02;100.00
11198;BME280;5655;48.744;9.162;2023-06-01T05:47:02;96325.84;;;19.00;100.00
11198;BME280;5655;48.744;9.162;2023-06-01T05:49:28;96322.31;;;18.83;100.00
11198;BME280;5655;48.744;9.162;2023-06-01T05:51:57;96325.31;;;18.89;100.00
11198;BME280;5655;48.744;9.162;2023-06-01T05:54:23;96325.63;;;18.71;100.00
11198;BME280;5655;48.744;9.162;2023-06-01T05:56:49;96322.72;;;19.01;100.00
11198;BME280;5655;48.744;9.162;2023-06-01T05:59:14;96322.38;;;18.80;100.00
11198;BME280;5655;48.744;9.162;2023-06-01T06:01:39;96326.75;;;18.93;100.00
11198;BME280;5655;48.744;9.162;2023-06-01T06:04:05;96331.63;;;19.02;100.00
11198;BME280;5655;48.744;9.162;2023-06-01T06:06:31;96334.19;;;19.09;100.00
11198;BME280;5655;48.744;9.162;2023-06-01T06:08:56;96335.25;;;19.15;100.00
11198;BME280;5655;48.744;9.162;2023-06-01T06:11:21;96339.91;;;18.95;100.00
11198;BME280;5655;48.744;9.162;2023-06-01T06:13:50;96341.00;;;19.17;100.00
11198;BME280;5655;48.744;9.162;2023-06-01T06:16:15;96339.13;;;19.14;100.00
11198;BME280;5655;48.744;9.162;2023-06-01T06:18:41;96344.63;;;19.11;100.00
11198;BME280;5655;48.744;9.162;2023-06-01T06:21:06;96339.94;;;19.31;100.00
11198;BME280;5655;48.744;9.162;2023-06-01T06:23:31;96341.56;;;19.28;100.00
11198;BME280;5655;48.744;9.162;2023-06-01T06:25:58;96343.75;;;19.33;100.00
11198;BME280;5655;48.744;9.162;2023-06-01T06:28:23;96342.25;;;19.32;100.00
11198;BME280;5655;48.744;9.162;2023-06-01T06:30:48;96340.47;;;19.42;100.00
11198;BME280;5655;48.744;9.162;2023-06-01T06:33:13;96336.22;;;19.61;100.00
11198;BME280;5655;48.744;9.162;2023-06-01T06:35:39;96339.44;;;19.72;100.00
11198;BME280;5655;48.744;9.162;2023-06-01T06:38:06;96345.81;;;19.65;100.00
11198;BME280;5655;48.744;9.162;2023-06-01T06:40:31;96343.88;;;19.66;100.00
11198;BME280;5655;48.744;9.162;2023-06-01T06:42:57;96341.66;;;19.77;100.00
11198;BME280;5655;48.744;9.162;2023-06-01T06:45:22;96350.00;;;19.86;100.00
11198;BME280;5655;48.744;9.162;2023-06-01T06:47:47;96344.25;;;20.00;100.00
11198;BME280;5655;48.744;9.162;2023-06-01T06:50:13;96339.84;;;20.06;100.00
11198;BME280;5655;48.744;9.162;2023-06-01T06:52:38;96345.50;;;20.28;100.00
11198;BME280;5655;48.744;9.162;2023-06-01T06:55:04;96343.16;;;20.14;100.00
11198;BME280;5655;48.744;9.162;2023-06-01T06:57:29;96349.50;;;20.56;100.00
11198;BME280;5655;48.744;9.162;2023-06-01T06:59:55;96346.63;;;20.47;100.00
11198;BME280;5655;48.744;9.162;2023-06-01T07:02:21;96351.09;;;20.69;100.00
11198;BME280;5655;48.744;9.162;2023-06-01T07:04:46;96352.88;;;20.60;100.00
11198;BME280;5655;48.744;9.162;2023-06-01T07:07:12;96344.16;;;20.81;100.00
11198;BME280;5655;48.744;9.162;2023-06-01T07:09:37;96352.16;;;20.88;100.00
11198;BME280;5655;48.744;9.162;2023-06-01T07:12:02;96349.59;;;20.81;100.00
11198;BME280;5655;48.744;9.162;2023-06-01T07:14:28;96352.09;;;21.04;100.00
11198;BME280;5655;48.744;9.162;2023-06-01T07:16:53;96347.22;;;21.12;100.00
11198;BME280;5655;48.744;9.162;2023-06-01T07:19:18;96352.25;;;20.97;100.00
11198;BME280;5655;48.744;9.162;2023-06-01T07:21:44;96352.84;;;21.34;100.00
11198;BME280;5655;48.744;9.162;2023-06-01T07:24:09;96349.88;;;20.99;100.00
11198;BME280;5655;48.744;9.162;2023-06-01T07:26:35;96351.41;;;21.29;100.00
11198;BME280;5655;48.744;9.162;2023-06-01T07:29:01;96349.31;;;21.20;100.00
11198;BME280;5655;48.744;9.162;2023-06-01T07:31:26;96350.47;;;21.36;100.00
11198;BME280;5655;48.744;9.162;2023-06-01T07:33:53;96348.84;;;21.51;100.00
11198;BME280;5655;48.744;9.162;2023-06-01T07:36:20;96345.88;;;21.58;100.00
11198;BME280;5655;48.744;9.162;2023-06-01T07:38:49;96349.84;;;21.57;100.00
11198;BME280;5655;48.744;9.162;2023-06-01T07:41:14;96351.84;;;21.27;100.00
11198;BME280;5655;48.744;9.162;2023-06-01T07:43:40;96357.00;;;21.63;100.00
11198;BME280;5655;48.744;9.162;2023-06-01T07:46:05;96352.88;;;21.84;100.00
11198;BME280;5655;48.744;9.162;2023-06-01T07:48:30;96350.69;;;21.92;100.00
11198;BME280;5655;48.744;9.162;2023-06-01T07:51:04;96356.34;;;22.23;100.00
11198;BME280;5655;48.744;9.162;2023-06-01T07:53:31;96349.09;;;22.54;100.00
11198;BME280;5655;48.744;9.162;2023-06-01T07:55:56;96354.03;;;22.46;100.00
11198;BME280;5655;48.744;9.162;2023-06-01T07:58:22;96350.22;;;22.31;100.00
11198;BME280;5655;48.744;9.162;2023-06-01T08:00:47;96343.88;;;22.47;100.00
11198;BME280;5655;48.744;9.162;2023-06-01T08:03:14;96350.81;;;22.26;100.00
11198;BME280;5655;48.744;9.162;2023-06-01T08:05:40;96353.50;;;22.39;100.00
11198;BME280;5655;48.744;9.162;2023-06-01T08:08:07;96353.25;;;22.46;100.00
11198;BME280;5655;48.744;9.162;2023-06-01T08:10:32;96349.84;;;22.54;100.00
11198;BME280;5655;48.744;9.162;2023-06-01T08:12:57;96355.69;;;22.78;98.52
11198;BME280;5655;48.744;9.162;2023-06-01T08:15:24;96358.81;;;22.89;100.00
11198;BME280;5655;48.744;9.162;2023-06-01T08:17:50;96353.03;;;22.87;100.00
11198;BME280;5655;48.744;9.162;2023-06-01T08:20:17;96351.56;;;22.95;94.99
11198;BME280;5655;48.744;9.162;2023-06-01T08:22:47;96345.06;;;23.15;95.67
11198;BME280;5655;48.744;9.162;2023-06-01T08:25:13;96353.59;;;23.26;93.41
11198;BME280;5655;48.744;9.162;2023-06-01T08:27:39;96342.94;;;23.19;100.00
11198;BME280;5655;48.744;9.162;2023-06-01T08:30:06;96340.41;;;23.46;91.50
11198;BME280;5655;48.744;9.162;2023-06-01T08:32:31;96333.41;;;23.45;94.54
11198;BME280;5655;48.744;9.162;2023-06-01T08:34:57;96329.22;;;23.53;95.56
11198;BME280;5655;48.744;9.162;2023-06-01T08:37:23;96334.81;;;23.49;93.52
11198;BME280;5655;48.744;9.162;2023-06-01T08:39:48;96333.63;;;23.50;96.17
11198;BME280;5655;48.744;9.162;2023-06-01T08:42:39;96331.22;;;23.62;93.49
11198;BME280;5655;48.744;9.162;2023-06-01T08:45:05;96328.50;;;23.40;93.70
11198;BME280;5655;48.744;9.162;2023-06-01T08:47:31;96330.59;;;23.58;89.60
11198;BME280;5655;48.744;9.162;2023-06-01T08:49:58;96333.31;;;23.88;94.19
11198;BME280;5655;48.744;9.162;2023-06-01T08:52:25;96330.53;;;23.79;89.33
11198;BME280;5655;48.744;9.162;2023-06-01T08:54:54;96336.06;;;23.98;96.61
11198;BME280;5655;48.744;9.162;2023-06-01T08:57:19;96334.88;;;24.08;84.59
11198;BME280;5655;48.744;9.162;2023-06-01T08:59:46;96329.69;;;24.01;82.49
11198;BME280;5655;48.744;9.162;2023-06-01T09:02:11;96321.19;;;23.99;85.75
11198;BME280;5655;48.744;9.162;2023-06-01T09:04:36;96323.72;;;24.33;87.12
11198;BME280;5655;48.744;9.162;2023-06-01T09:07:07;96328.66;;;24.07;93.83
11198;BME280;5655;48.744;9.162;2023-06-01T09:09:32;96331.16;;;24.23;87.62
11198;BME280;5655;48.744;9.162;2023-06-01T09:12:17;96322.84;;;24.63;87.58
11198;BME280;5655;48.744;9.162;2023-06-01T09:14:43;96330.53;;;24.19;86.53
11198;BME280;5655;48.744;9.162;2023-06-01T09:17:21;96327.97;;;24.34;86.18
11198;BME280;5655;48.744;9.162;2023-06-01T09:19:52;96324.50;;;24.52;85.79
11198;BME280;5655;48.744;9.162;2023-06-01T09:22:18;96326.66;;;24.66;87.16
11198;BME280;5655;48.744;9.162;2023-06-01T09:24:55;96325.28;;;25.07;80.81
11198;BME280;5655;48.744;9.162;2023-06-01T09:27:21;96332.72;;;24.79;78.80
11198;BME280;5655;48.744;9.162;2023-06-01T09:29:56;96328.78;;;24.98;91.52
11198;BME280;5655;48.744;9.162;2023-06-01T09:32:24;96328.34;;;24.91;81.64
11198;BME280;5655;48.744;9.162;2023-06-01T09:34:49;96330.16;;;24.84;93.77
11198;BME280;5655;48.744;9.162;2023-06-01T09:37:15;96325.63;;;25.51;80.67
11198;BME280;5655;48.744;9.162;2023-06-01T09:39:42;96332.50;;;25.46;87.02
11198;BME280;5655;48.744;9.162;2023-06-01T09:42:08;96326.31;;;25.37;79.41
11198;BME280;5655;48.744;9.162;2023-06-01T09:44:36;96332.03;;;25.66;78.93
11198;BME280;5655;48.744;9.162;2023-06-01T09:47:07;96327.38;;;25.81;77.81
11198;BME280;5655;48.744;9.162;2023-06-01T09:49:42;96318.16;;;25.69;80.93
11198;BME280;5655;48.744;9.162;2023-06-01T09:52:08;96324.16;;;26.15;73.81
11198;BME280;5655;48.744;9.162;2023-06-01T09:54:40;96315.03;;;25.86;68.26
11198;BME280;5655;48.744;9.162;2023-06-01T09:57:07;96318.94;;;26.50;69.94
11198;BME280;5655;48.744;9.162;2023-06-01T09:59:42;96313.00;;;26.67;73.18
11198;BME280;5655;48.744;9.162;2023-06-01T10:02:13;96316.03;;;26.92;67.36
11198;BME280;5655;48.744;9.162;2023-06-01T10:04:40;96314.75;;;26.79;70.63
11198;BME280;5655;48.744;9.162;2023-06-01T10:07:07;96310.56;;;26.69;74.64
11198;BME280;5655;48.744;9.162;2023-06-01T10:09:33;96308.31;;;26.43;82.21
11198;BME280;5655;48.744;9.162;2023-06-01T10:12:01;96310.59;;;26.83;64.84
11198;BME280;5655;48.744;9.162;2023-06-01T10:14:26;96303.09;;;26.69;62.73
11198;BME280;5655;48.744;9.162;2023-06-01T10:16:52;96292.94;;;26.75;65.84
11198;BME280;5655;48.744;9.162;2023-06-01T10:19:20;96299.38;;;26.96;63.99
11198;BME280;5655;48.744;9.162;2023-06-01T10:21:46;96299.47;;;27.01;63.67
11198;BME280;5655;48.744;9.162;2023-06-01T10:24:17;96297.97;;;27.15;69.51
11198;BME280;5655;48.744;9.162;2023-06-01T10:27:01;96300.53;;;27.04;63.67
11198;BME280;5655;48.744;9.162;2023-06-01T10:29:30;96291.69;;;26.85;61.58
11198;BME280;5655;48.744;9.162;2023-06-01T10:31:56;96291.91;;;27.11;57.70
11198;BME280;5655;48.744;9.162;2023-06-01T10:34:38;96287.16;;;27.26;57.31
11198;BME280;5655;48.744;9.162;2023-06-01T10:39:31;96286.94;;;27.44;51.55
11198;BME280;5655;48.744;9.162;2023-06-01T10:52:36;96280.72;;;27.59;53.10
11198;BME280;5655;48.744;9.162;2023-06-01T10:57:35;96271.81;;;28.39;48.96
11198;BME280;5655;48.744;9.162;2023-06-01T11:00:23;96263.50;;;28.13;49.77
11198;BME280;5655;48.744;9.162;2023-06-01T11:02:58;96262.69;;;28.27;48.58
11198;BME280;5655;48.744;9.162;2023-06-01T11:13:25;96257.22;;;28.53;53.45
11198;BME280;5655;48.744;9.162;2023-06-01T11:18:45;96252.53;;;29.05;48.18
11198;BME280;5655;48.744;9.162;2023-06-01T11:21:16;96259.72;;;28.51;48.67
11198;BME280;5655;48.744;9.162;2023-06-01T11:23:42;96257.06;;;28.62;50.60
11198;BME280;5655;48.744;9.162;2023-06-01T11:26:08;96255.44;;;28.70;50.22
11198;BME280;5655;48.744;9.162;2023-06-01T11:28:34;96249.88;;;29.16;46.28
11198;BME280;5655;48.744;9.162;2023-06-01T11:31:01;96252.47;;;28.54;45.99
11198;BME280;5655;48.744;9.162;2023-06-01T11:33:31;96250.81;;;28.82;46.92
11198;BME280;5655;48.744;9.162;2023-06-01T11:36:00;96245.91;;;29.49;52.48
11198;BME280;5655;48.744;9.162;2023-06-01T11:38:36;96248.56;;;29.74;47.87
11198;BME280;5655;48.744;9.162;2023-06-01T11:41:02;96242.66;;;29.50;48.02
11198;BME280;5655;48.744;9.162;2023-06-01T11:43:29;96241.25;;;29.66;45.85
11198;BME280;5655;48.744;9.162;2023-06-01T11:46:06;96237.72;;;30.02;46.16
11198;BME280;5655;48.744;9.162;2023-06-01T11:48:32;96237.38;;;30.37;45.64
11198;BME280;5655;48.744;9.162;2023-06-01T11:50:59;96232.00;;;30.82;42.80
11198;BME280;5655;48.744;9.162;2023-06-01T11:53:25;96235.81;;;30.19;44.14
11198;BME280;5655;48.744;9.162;2023-06-01T11:55:53;96227.91;;;30.55;44.35
11198;BME280;5655;48.744;9.162;2023-06-01T11:58:29;96232.47;;;30.69;43.67
11198;BME280;5655;48.744;9.162;2023-06-01T12:00:56;96228.25;;;29.09;43.83
11198;BME280;5655;48.744;9.162;2023-06-01T12:03:23;96222.63;;;29.92;45.52
11198;BME280;5655;48.744;9.162;2023-06-01T12:05:51;96226.88;;;30.47;44.04
11198;BME280;5655;48.744;9.162;2023-06-01T12:08:24;96224.13;;;30.47;42.44
11198;BME280;5655;48.744;9.162;2023-06-01T12:10:51;96219.44;;;30.16;42.68
11198;BME280;5655;48.744;9.162;2023-06-01T12:13:18;96223.88;;;30.45;41.71
11198;BME280;5655;48.744;9.162;2023-06-01T12:15:44;96215.69;;;30.13;41.98
11198;BME280;5655;48.744;9.162;2023-06-01T12:18:10;96218.75;;;30.27;43.04
11198;BME280;5655;48.744;9.162;2023-06-01T12:20:41;96206.66;;;31.22;40.82
11198;BME280;5655;48.744;9.162;2023-06-01T12:25:35;96208.13;;;30.68;39.91
11198;BME280;5655;48.744;9.162;2023-06-01T12:28:08;96204.66;;;31.62;38.79
11198;BME280;5655;48.744;9.162;2023-06-01T12:30:35;96204.09;;;30.63;38.31
11198;BME280;5655;48.744;9.162;2023-06-01T12:33:01;96204.06;;;30.57;40.03
11198;BME280;5655;48.744;9.162;2023-06-01T12:35:29;96206.13;;;30.85;39.24
11198;BME280;5655;48.744;9.162;2023-06-01T12:38:03;96201.88;;;31.12;38.28
11198;BME280;5655;48.744;9.162;2023-06-01T12:40:28;96198.38;;;31.05;37.05
11198;BME280;5655;48.744;9.162;2023-06-01T12:42:54;96183.22;;;30.73;37.19
11198;BME280;5655;48.744;9.162;2023-06-01T12:45:20;96187.25;;;30.94;38.29
11198;BME280;5655;48.744;9.162;2023-06-01T12:47:45;96197.88;;;31.01;38.33
11198;BME280;5655;48.744;9.162;2023-06-01T12:50:11;96194.59;;;31.08;38.92
11198;BME280;5655;48.744;9.162;2023-06-01T12:52:38;96187.56;;;31.07;40.00
11198;BME280;5655;48.744;9.162;2023-06-01T12:55:04;96189.78;;;30.92;38.53
11198;BME280;5655;48.744;9.162;2023-06-01T12:57:34;96190.03;;;30.83;38.09
11198;BME280;5655;48.744;9.162;2023-06-01T13:00:00;96188.78;;;30.79;38.73
11198;BME280;5655;48.744;9.162;2023-06-01T13:02:25;96176.72;;;31.43;37.22
11198;BME280;5655;48.744;9.162;2023-06-01T13:04:51;96183.25;;;30.84;36.83
11198;BME280;5655;48.744;9.162;2023-06-01T13:07:18;96180.00;;;30.80;35.49
11198;BME280;5655;48.744;9.162;2023-06-01T13:09:47;96180.69;;;30.64;36.89
11198;BME280;5655;48.744;9.162;2023-06-01T13:12:12;96180.28;;;31.10;36.57
11198;BME280;5655;48.744;9.162;2023-06-01T13:14:38;96169.16;;;31.38;37.65
11198;BME280;5655;48.744;9.162;2023-06-01T13:17:04;96168.47;;;31.15;38.10
11198;BME280;5655;48.744;9.162;2023-06-01T13:19:29;96167.66;;;31.65;37.96
11198;BME280;5655;48.744;9.162;2023-06-01T13:21:55;96163.63;;;31.38;39.21
11198;BME280;5655;48.744;9.162;2023-06-01T13:24:21;96163.31;;;31.80;39.45
11198;BME280;5655;48.744;9.162;2023-06-01T13:26:46;96156.09;;;30.99;38.08
11198;BME280;5655;48.744;9.162;2023-06-01T13:29:12;96157.63;;;31.23;41.01
11198;BME280;5655;48.744;9.162;2023-06-01T13:31:37;96157.13;;;31.30;41.63
11198;BME280;5655;48.744;9.162;2023-06-01T13:34:03;96163.66;;;31.16;41.58
11198;BME280;5655;48.744;9.162;2023-06-01T13:36:29;96153.09;;;31.20;41.37
11198;BME280;5655;48.744;9.162;2023-06-01T13:38:54;96156.16;;;31.11;43.66
11198;BME280;5655;48.744;9.162;2023-06-01T13:41:19;96154.09;;;31.33;42.01
11198;BME280;5655;48.744;9.162;2023-06-01T13:43:45;96153.81;;;31.42;43.52
11198;BME280;5655;48.744;9.162;2023-06-01T13:46:11;96144.81;;;31.25;43.10